sensor_id;sensor_type;location;lat;lon;timestamp;P1;durP1;ratioP1;P2;durP2;ratioP2
59786;SDS011;45672;51.612;5.536;2023-03-23T12:42:00;4.70;;;1.73;;
59786;SDS011;45672;51.612;5.536;2023-03-23T12:44:47;5.05;;;2.20;;
59786;SDS011;45672;51.612;5.536;2023-03-23T12:50:23;5.00;;;2.10;;
59786;SDS011;45672;51.612;5.536;2023-03-23T12:52:55;6.72;;;2.00;;
59786;SDS011;45672;51.612;5.536;2023-03-23T12:55:33;5.35;;;1.70;;
59786;SDS011;45672;51.612;5.536;2023-03-23T12:58:07;6.53;;;2.20;;
59786;SDS011;45672;51.612;5.536;2023-03-23T13:05:57;7.28;;;2.30;;
59786;SDS011;45672;51.612;5.536;2023-03-23T13:08:36;5.63;;;1.75;;
59786;SDS011;45672;51.612;5.536;2023-03-23T13:11:08;6.47;;;2.40;;
59786;SDS011;45672;51.612;5.536;2023-03-23T13:13:45;9.05;;;2.10;;
59786;SDS011;45672;51.612;5.536;2023-03-23T13:19:13;5.90;;;2.17;;
59786;SDS011;45672;51.612;5.536;2023-03-23T13:24:23;4.72;;;1.95;;
59786;SDS011;45672;51.612;5.536;2023-03-23T13:26:56;8.88;;;2.55;;
59786;SDS011;45672;51.612;5.536;2023-03-23T13:29:23;6.18;;;2.60;;
59786;SDS011;45672;51.612;5.536;2023-03-23T13:31:52;6.65;;;2.13;;
59786;SDS011;45672;51.612;5.536;2023-03-23T13:34:30;6.82;;;1.95;;
59786;SDS011;45672;51.612;5.536;2023-03-23T13:36:57;5.30;;;2.13;;
59786;SDS011;45672;51.612;5.536;2023-03-23T13:39:28;10.20;;;2.65;;
59786;SDS011;45672;51.612;5.536;2023-03-23T13:47:21;10.05;;;2.17;;
59786;SDS011;45672;51.612;5.536;2023-03-23T13:49:52;7.85;;;2.45;;
59786;SDS011;45672;51.612;5.536;2023-03-23T14:02:52;4.60;;;2.17;;
59786;SDS011;45672;51.612;5.536;2023-03-23T14:08:22;6.78;;;1.90;;
59786;SDS011;45672;51.612;5.536;2023-03-23T14:11:12;7.13;;;2.40;;
59786;SDS011;45672;51.612;5.536;2023-03-23T14:16:26;6.40;;;2.20;;
59786;SDS011;45672;51.612;5.536;2023-03-23T14:18:58;5.95;;;2.22;;
59786;SDS011;45672;51.612;5.536;2023-03-23T14:21:35;5.25;;;1.75;;
59786;SDS011;45672;51.612;5.536;2023-03-23T14:24:24;4.13;;;1.80;;
59786;SDS011;45672;51.612;5.536;2023-03-23T14:26:52;5.55;;;1.85;;
59786;SDS011;45672;51.612;5.536;2023-03-23T14:29:26;3.80;;;2.05;;
59786;SDS011;45672;51.612;5.536;2023-03-23T14:31:56;6.32;;;2.10;;
59786;SDS011;45672;51.612;5.536;2023-03-23T14:34:24;6.45;;;2.03;;
59786;SDS011;45672;51.612;5.536;2023-03-23T14:36:51;7.85;;;2.15;;
59786;SDS011;45672;51.612;5.536;2023-03-23T14:39:23;6.95;;;4.05;;
59786;SDS011;45672;51.612;5.536;2023-03-23T14:41:51;10.85;;;6.07;;
59786;SDS011;45672;51.612;5.536;2023-03-23T14:44:21;9.60;;;4.68;;
59786;SDS011;45672;51.612;5.536;2023-03-23T14:46:49;8.95;;;2.72;;
59786;SDS011;45672;51.612;5.536;2023-03-23T14:49:15;9.45;;;2.80;;
59786;SDS011;45672;51.612;5.536;2023-03-23T14:51:48;4.57;;;2.30;;
59786;SDS011;45672;51.612;5.536;2023-03-23T14:54:18;6.40;;;2.38;;
59786;SDS011;45672;51.612;5.536;2023-03-23T14:56:47;7.07;;;2.40;;
59786;SDS011;45672;51.612;5.536;2023-03-23T14:59:12;6.20;;;2.00;;
59786;SDS011;45672;51.612;5.536;2023-03-23T15:01:38;7.07;;;2.53;;
59786;SDS011;45672;51.612;5.536;2023-03-23T15:04:14;6.22;;;2.33;;
59786;SDS011;45672;51.612;5.536;2023-03-23T15:06:44;8.38;;;2.60;;
59786;SDS011;45672;51.612;5.536;2023-03-23T15:09:17;10.80;;;3.25;;
59786;SDS011;45672;51.612;5.536;2023-03-23T15:11:53;13.23;;;3.08;;
59786;SDS011;45672;51.612;5.536;2023-03-23T15:14:35;7.22;;;2.75;;
59786;SDS011;45672;51.612;5.536;2023-03-23T15:17:16;6.40;;;2.85;;
59786;SDS011;45672;51.612;5.536;2023-03-23T15:19:53;6.85;;;2.40;;
59786;SDS011;45672;51.612;5.536;2023-03-23T15:22:24;6.25;;;2.20;;
59786;SDS011;45672;51.612;5.536;2023-03-23T15:24:51;3.75;;;1.90;;
59786;SDS011;45672;51.612;5.536;2023-03-23T15:27:28;7.82;;;2.40;;
59786;SDS011;45672;51.612;5.536;2023-03-23T15:29:55;6.57;;;2.30;;
59786;SDS011;45672;51.612;5.536;2023-03-23T15:32:27;5.60;;;2.10;;
59786;SDS011;45672;51.612;5.536;2023-03-23T15:34:56;7.60;;;2.35;;
59786;SDS011;45672;51.612;5.536;2023-03-23T15:37:32;7.18;;;2.40;;
59786;SDS011;45672;51.612;5.536;2023-03-23T15:39:58;10.55;;;2.45;;
59786;SDS011;45672;51.612;5.536;2023-03-23T15:42:29;7.68;;;2.40;;
59786;SDS011;45672;51.612;5.536;2023-03-23T15:45:16;8.00;;;2.55;;
59786;SDS011;45672;51.612;5.536;2023-03-23T15:47:52;8.27;;;2.30;;
59786;SDS011;45672;51.612;5.536;2023-03-23T15:52:52;8.38;;;2.78;;
59786;SDS011;45672;51.612;5.536;2023-03-23T15:55:35;6.97;;;2.50;;
59786;SDS011;45672;51.612;5.536;2023-03-23T15:58:07;6.15;;;2.60;;
59786;SDS011;45672;51.612;5.536;2023-03-23T16:00:35;7.43;;;2.58;;
59786;SDS011;45672;51.612;5.536;2023-03-23T16:03:03;7.95;;;2.70;;
59786;SDS011;45672;51.612;5.536;2023-03-23T16:05:30;6.60;;;2.67;;
59786;SDS011;45672;51.612;5.536;2023-03-23T16:07:56;4.80;;;2.28;;
59786;SDS011;45672;51.612;5.536;2023-03-23T16:10:23;12.75;;;2.63;;
59786;SDS011;45672;51.612;5.536;2023-03-23T16:12:50;6.47;;;2.55;;
59786;SDS011;45672;51.612;5.536;2023-03-23T16:15:16;7.97;;;2.40;;
59786;SDS011;45672;51.612;5.536;2023-03-23T16:17:42;9.35;;;3.08;;
59786;SDS011;45672;51.612;5.536;2023-03-23T16:20:18;7.38;;;2.60;;
59786;SDS011;45672;51.612;5.536;2023-03-23T16:22:46;4.97;;;2.70;;
59786;SDS011;45672;51.612;5.536;2023-03-23T16:25:13;8.65;;;3.03;;
59786;SDS011;45672;51.612;5.536;2023-03-23T16:27:39;9.38;;;2.90;;
59786;SDS011;45672;51.612;5.536;2023-03-23T16:30:15;7.15;;;2.55;;
59786;SDS011;45672;51.612;5.536;2023-03-23T16:32:43;6.97;;;2.75;;
59786;SDS011;45672;51.612;5.536;2023-03-23T16:35:09;9.27;;;3.00;;
59786;SDS011;45672;51.612;5.536;2023-03-23T16:37:35;10.93;;;3.58;;
59786;SDS011;45672;51.612;5.536;2023-03-23T16:40:01;9.23;;;2.90;;
59786;SDS011;45672;51.612;5.536;2023-03-23T16:42:29;10.15;;;3.00;;
59786;SDS011;45672;51.612;5.536;2023-03-23T16:44:54;7.82;;;2.38;;
59786;SDS011;45672;51.612;5.536;2023-03-23T16:47:21;5.65;;;2.35;;
59786;SDS011;45672;51.612;5.536;2023-03-23T16:49:50;7.38;;;2.55;;
59786;SDS011;45672;51.612;5.536;2023-03-23T16:52:16;4.55;;;2.45;;
59786;SDS011;45672;51.612;5.536;2023-03-23T16:54:42;8.48;;;3.13;;
59786;SDS011;45672;51.612;5.536;2023-03-23T16:57:12;4.47;;;2.42;;
59786;SDS011;45672;51.612;5.536;2023-03-23T16:59:37;12.00;;;2.75;;
59786;SDS011;45672;51.612;5.536;2023-03-23T17:02:05;8.52;;;3.10;;
59786;SDS011;45672;51.612;5.536;2023-03-23T17:04:33;7.45;;;2.60;;
59786;SDS011;45672;51.612;5.536;2023-03-23T17:06:59;6.50;;;2.58;;
59786;SDS011;45672;51.612;5.536;2023-03-23T17:09:27;8.65;;;3.03;;
59786;SDS011;45672;51.612;5.536;2023-03-23T17:11:55;10.77;;;3.05;;
59786;SDS011;45672;51.612;5.536;2023-03-23T17:14:20;8.90;;;3.20;;
59786;SDS011;45672;51.612;5.536;2023-03-23T17:16:46;11.48;;;3.67;;
59786;SDS011;45672;51.612;5.536;2023-03-23T17:19:12;6.75;;;2.33;;
59786;SDS011;45672;51.612;5.536;2023-03-23T17:21:43;12.82;;;3.38;;
59786;SDS011;45672;51.612;5.536;2023-03-23T17:24:09;8.75;;;3.15;;
59786;SDS011;45672;51.612;5.536;2023-03-23T17:26:34;6.50;;;2.88;;
59786;SDS011;45672;51.612;5.536;2023-03-23T17:29:00;8.27;;;2.97;;
59786;SDS011;45672;51.612;5.536;2023-03-23T17:31:26;8.77;;;3.15;;
59786;SDS011;45672;51.612;5.536;2023-03-23T17:33:52;6.93;;;3.50;;
59786;SDS011;45672;51.612;5.536;2023-03-23T17:36:17;5.80;;;2.97;;
59786;SDS011;45672;51.612;5.536;2023-03-23T17:38:43;9.73;;;3.50;;
59786;SDS011;45672;51.612;5.536;2023-03-23T17:41:09;8.15;;;2.95;;
59786;SDS011;45672;51.612;5.536;2023-03-23T17:43:35;11.25;;;3.45;;
59786;SDS011;45672;51.612;5.536;2023-03-23T17:46:04;6.38;;;3.17;;
59786;SDS011;45672;51.612;5.536;2023-03-23T17:48:30;7.88;;;3.40;;
59786;SDS011;45672;51.612;5.536;2023-03-23T17:50:58;6.40;;;2.92;;
59786;SDS011;45672;51.612;5.536;2023-03-23T17:53:26;10.93;;;3.72;;
59786;SDS011;45672;51.612;5.536;2023-03-23T17:55:53;11.55;;;3.45;;
59786;SDS011;45672;51.612;5.536;2023-03-23T17:58:19;11.52;;;4.03;;
59786;SDS011;45672;51.612;5.536;2023-03-23T18:00:45;8.77;;;3.63;;
59786;SDS011;45672;51.612;5.536;2023-03-23T18:03:10;9.48;;;4.07;;
59786;SDS011;45672;51.612;5.536;2023-03-23T18:05:36;7.90;;;3.53;;
59786;SDS011;45672;51.612;5.536;2023-03-23T18:08:03;10.93;;;3.50;;
59786;SDS011;45672;51.612;5.536;2023-03-23T18:10:29;12.43;;;3.50;;
59786;SDS011;45672;51.612;5.536;2023-03-23T18:12:55;10.73;;;3.70;;
59786;SDS011;45672;51.612;5.536;2023-03-23T18:15:21;10.27;;;3.83;;
59786;SDS011;45672;51.612;5.536;2023-03-23T18:17:46;10.40;;;3.97;;
59786;SDS011;45672;51.612;5.536;2023-03-23T18:20:14;6.78;;;3.38;;
59786;SDS011;45672;51.612;5.536;2023-03-23T18:22:40;12.13;;;3.85;;
59786;SDS011;45672;51.612;5.536;2023-03-23T18:25:06;9.77;;;3.42;;
59786;SDS011;45672;51.612;5.536;2023-03-23T18:27:32;7.50;;;3.88;;
59786;SDS011;45672;51.612;5.536;2023-03-23T18:29:58;11.55;;;3.28;;
59786;SDS011;45672;51.612;5.536;2023-03-23T18:32:23;7.32;;;3.75;;
59786;SDS011;45672;51.612;5.536;2023-03-23T18:34:49;7.47;;;3.28;;
59786;SDS011;45672;51.612;5.536;2023-03-23T18:37:14;7.32;;;3.63;;
59786;SDS011;45672;51.612;5.536;2023-03-23T18:39:40;12.15;;;3.20;;
59786;SDS011;45672;51.612;5.536;2023-03-23T18:42:05;8.38;;;3.47;;
59786;SDS011;45672;51.612;5.536;2023-03-23T18:44:31;8.63;;;3.17;;
59786;SDS011;45672;51.612;5.536;2023-03-23T18:46:56;6.75;;;3.40;;
59786;SDS011;45672;51.612;5.536;2023-03-23T18:49:22;8.88;;;3.47;;
59786;SDS011;45672;51.612;5.536;2023-03-23T18:51:48;8.63;;;3.15;;
59786;SDS011;45672;51.612;5.536;2023-03-23T18:54:13;7.60;;;3.50;;
59786;SDS011;45672;51.612;5.536;2023-03-23T18:56:39;8.23;;;3.20;;
59786;SDS011;45672;51.612;5.536;2023-03-23T18:59:04;11.00;;;3.25;;
59786;SDS011;45672;51.612;5.536;2023-03-23T19:01:30;6.65;;;3.20;;
59786;SDS011;45672;51.612;5.536;2023-03-23T19:03:55;13.38;;;3.50;;
59786;SDS011;45672;51.612;5.536;2023-03-23T19:06:22;11.75;;;3.25;;
59786;SDS011;45672;51.612;5.536;2023-03-23T19:08:49;6.88;;;3.00;;
59786;SDS011;45672;51.612;5.536;2023-03-23T19:11:16;8.70;;;3.15;;
59786;SDS011;45672;51.612;5.536;2023-03-23T19:13:42;7.88;;;3.03;;
59786;SDS011;45672;51.612;5.536;2023-03-23T19:16:07;6.32;;;3.00;;
59786;SDS011;45672;51.612;5.536;2023-03-23T19:18:33;10.45;;;3.17;;
59786;SDS011;45672;51.612;5.536;2023-03-23T19:20:58;5.38;;;2.95;;
59786;SDS011;45672;51.612;5.536;2023-03-23T19:23:24;5.32;;;3.10;;
59786;SDS011;45672;51.612;5.536;2023-03-23T19:25:51;10.10;;;2.78;;
59786;SDS011;45672;51.612;5.536;2023-03-23T19:28:17;10.88;;;3.25;;
59786;SDS011;45672;51.612;5.536;2023-03-23T19:30:47;8.65;;;3.05;;
59786;SDS011;45672;51.612;5.536;2023-03-23T19:33:14;9.00;;;2.97;;
59786;SDS011;45672;51.612;5.536;2023-03-23T19:35:41;9.55;;;3.58;;
59786;SDS011;45672;51.612;5.536;2023-03-23T19:38:07;5.75;;;2.72;;
59786;SDS011;45672;51.612;5.536;2023-03-23T19:40:33;10.45;;;2.95;;
59786;SDS011;45672;51.612;5.536;2023-03-23T19:43:01;14.27;;;3.25;;
59786;SDS011;45672;51.612;5.536;2023-03-23T19:45:27;7.00;;;2.78;;
59786;SDS011;45672;51.612;5.536;2023-03-23T19:47:53;8.30;;;3.13;;
59786;SDS011;45672;51.612;5.536;2023-03-23T19:50:18;8.05;;;3.53;;
59786;SDS011;45672;51.612;5.536;2023-03-23T19:52:43;14.25;;;3.45;;
59786;SDS011;45672;51.612;5.536;2023-03-23T19:55:08;7.18;;;3.00;;
59786;SDS011;45672;51.612;5.536;2023-03-23T19:57:34;9.98;;;3.67;;
59786;SDS011;45672;51.612;5.536;2023-03-23T19:59:59;7.00;;;3.22;;
59786;SDS011;45672;51.612;5.536;2023-03-23T20:02:24;8.50;;;3.55;;
59786;SDS011;45672;51.612;5.536;2023-03-23T20:04:50;7.05;;;3.28;;
59786;SDS011;45672;51.612;5.536;2023-03-23T20:07:16;5.93;;;2.97;;
59786;SDS011;45672;51.612;5.536;2023-03-23T20:09:41;8.95;;;3.58;;
59786;SDS011;45672;51.612;5.536;2023-03-23T20:12:07;7.10;;;3.00;;
59786;SDS011;45672;51.612;5.536;2023-03-23T20:14:33;8.02;;;3.05;;
59786;SDS011;45672;51.612;5.536;2023-03-23T20:16:59;11.73;;;3.53;;
59786;SDS011;45672;51.612;5.536;2023-03-23T20:19:24;8.43;;;3.05;;
59786;SDS011;45672;51.612;5.536;2023-03-23T20:21:50;10.32;;;3.88;;
59786;SDS011;45672;51.612;5.536;2023-03-23T20:24:15;6.03;;;3.25;;
59786;SDS011;45672;51.612;5.536;2023-03-23T20:26:41;9.80;;;3.95;;
59786;SDS011;45672;51.612;5.536;2023-03-23T20:29:07;9.65;;;3.80;;
59786;SDS011;45672;51.612;5.536;2023-03-23T20:31:34;13.70;;;3.80;;
59786;SDS011;45672;51.612;5.536;2023-03-23T20:34:03;12.50;;;4.40;;
59786;SDS011;45672;51.612;5.536;2023-03-23T20:36:33;8.20;;;3.70;;
59786;SDS011;45672;51.612;5.536;2023-03-23T20:39:11;8.70;;;3.53;;
59786;SDS011;45672;51.612;5.536;2023-03-23T20:41:39;9.50;;;4.30;;
59786;SDS011;45672;51.612;5.536;2023-03-23T20:44:06;10.10;;;3.95;;
59786;SDS011;45672;51.612;5.536;2023-03-23T20:46:33;8.05;;;3.50;;
59786;SDS011;45672;51.612;5.536;2023-03-23T20:48:59;10.27;;;3.30;;
59786;SDS011;45672;51.612;5.536;2023-03-23T20:51:25;9.20;;;3.50;;
59786;SDS011;45672;51.612;5.536;2023-03-23T20:53:50;10.50;;;3.78;;
59786;SDS011;45672;51.612;5.536;2023-03-23T20:56:16;5.95;;;3.67;;
59786;SDS011;45672;51.612;5.536;2023-03-23T20:58:41;6.93;;;3.70;;
59786;SDS011;45672;51.612;5.536;2023-03-23T21:01:06;8.82;;;3.58;;
59786;SDS011;45672;51.612;5.536;2023-03-23T21:03:34;7.93;;;3.92;;
59786;SDS011;45672;51.612;5.536;2023-03-23T21:06:02;7.53;;;3.63;;
59786;SDS011;45672;51.612;5.536;2023-03-23T21:08:28;12.80;;;4.00;;
59786;SDS011;45672;51.612;5.536;2023-03-23T21:10:54;7.30;;;3.47;;
59786;SDS011;45672;51.612;5.536;2023-03-23T21:13:20;9.00;;;3.38;;
59786;SDS011;45672;51.612;5.536;2023-03-23T21:15:46;13.25;;;3.70;;
59786;SDS011;45672;51.612;5.536;2023-03-23T21:18:11;4.22;;;3.30;;
59786;SDS011;45672;51.612;5.536;2023-03-23T21:20:37;7.47;;;3.50;;
59786;SDS011;45672;51.612;5.536;2023-03-23T21:23:03;5.32;;;3.53;;
59786;SDS011;45672;51.612;5.536;2023-03-23T21:25:29;8.52;;;3.10;;
59786;SDS011;45672;51.612;5.536;2023-03-23T21:27:57;4.65;;;2.97;;
59786;SDS011;45672;51.612;5.536;2023-03-23T21:30:22;7.85;;;3.33;;
59786;SDS011;45672;51.612;5.536;2023-03-23T21:32:47;7.22;;;2.97;;
59786;SDS011;45672;51.612;5.536;2023-03-23T21:35:14;5.15;;;3.15;;
59786;SDS011;45672;51.612;5.536;2023-03-23T21:37:40;6.57;;;2.95;;
59786;SDS011;45672;51.612;5.536;2023-03-23T21:40:06;8.20;;;3.30;;
59786;SDS011;45672;51.612;5.536;2023-03-23T21:42:37;6.78;;;3.50;;
59786;SDS011;45672;51.612;5.536;2023-03-23T21:45:06;6.32;;;2.80;;
59786;SDS011;45672;51.612;5.536;2023-03-23T21:47:34;6.22;;;2.80;;
59786;SDS011;45672;51.612;5.536;2023-03-23T21:50:00;5.32;;;3.30;;
59786;SDS011;45672;51.612;5.536;2023-03-23T21:52:28;5.80;;;3.10;;
59786;SDS011;45672;51.612;5.536;2023-03-23T21:54:54;7.07;;;3.00;;
59786;SDS011;45672;51.612;5.536;2023-03-23T21:57:22;4.13;;;3.03;;
59786;SDS011;45672;51.612;5.536;2023-03-23T21:59:48;5.55;;;3.00;;
59786;SDS011;45672;51.612;5.536;2023-03-23T22:02:13;7.38;;;3.10;;
59786;SDS011;45672;51.612;5.536;2023-03-23T22:04:39;6.75;;;3.10;;
59786;SDS011;45672;51.612;5.536;2023-03-23T22:07:05;7.15;;;2.95;;
59786;SDS011;45672;51.612;5.536;2023-03-23T22:09:31;4.32;;;3.13;;
59786;SDS011;45672;51.612;5.536;2023-03-23T22:11:58;7.55;;;3.03;;
59786;SDS011;45672;51.612;5.536;2023-03-23T22:14:23;4.15;;;2.58;;
59786;SDS011;45672;51.612;5.536;2023-03-23T22:16:49;7.15;;;2.92;;
59786;SDS011;45672;51.612;5.536;2023-03-23T22:19:14;5.95;;;3.08;;
59786;SDS011;45672;51.612;5.536;2023-03-23T22:21:40;6.13;;;3.00;;
59786;SDS011;45672;51.612;5.536;2023-03-23T22:24:06;7.05;;;3.17;;
59786;SDS011;45672;51.612;5.536;2023-03-23T22:26:31;8.57;;;3.20;;
59786;SDS011;45672;51.612;5.536;2023-03-23T22:28:57;7.57;;;2.78;;
59786;SDS011;45672;51.612;5.536;2023-03-23T22:31:25;5.80;;;2.63;;
59786;SDS011;45672;51.612;5.536;2023-03-23T22:33:53;7.00;;;3.20;;
59786;SDS011;45672;51.612;5.536;2023-03-23T22:36:20;8.10;;;3.30;;
59786;SDS011;45672;51.612;5.536;2023-03-23T22:38:47;5.40;;;2.72;;
59786;SDS011;45672;51.612;5.536;2023-03-23T22:41:15;5.43;;;2.83;;
59786;SDS011;45672;51.612;5.536;2023-03-23T22:43:42;7.97;;;3.10;;
59786;SDS011;45672;51.612;5.536;2023-03-23T22:46:08;4.07;;;2.88;;
59786;SDS011;45672;51.612;5.536;2023-03-23T22:48:33;5.32;;;3.15;;
59786;SDS011;45672;51.612;5.536;2023-03-23T22:50:59;6.63;;;2.72;;
59786;SDS011;45672;51.612;5.536;2023-03-23T22:53:25;4.68;;;3.33;;
59786;SDS011;45672;51.612;5.536;2023-03-23T22:55:52;6.63;;;3.50;;
59786;SDS011;45672;51.612;5.536;2023-03-23T22:58:18;7.97;;;3.20;;
59786;SDS011;45672;51.612;5.536;2023-03-23T23:00:46;5.13;;;2.95;;
59786;SDS011;45672;51.612;5.536;2023-03-23T23:03:13;6.97;;;3.10;;
59786;SDS011;45672;51.612;5.536;2023-03-23T23:05:40;2.85;;;2.42;;
59786;SDS011;45672;51.612;5.536;2023-03-23T23:08:10;5.97;;;2.83;;
59786;SDS011;45672;51.612;5.536;2023-03-23T23:10:38;8.25;;;3.10;;
59786;SDS011;45672;51.612;5.536;2023-03-23T23:13:04;9.55;;;3.00;;
59786;SDS011;45672;51.612;5.536;2023-03-23T23:15:30;6.15;;;3.10;;
59786;SDS011;45672;51.612;5.536;2023-03-23T23:17:55;5.65;;;2.97;;
59786;SDS011;45672;51.612;5.536;2023-03-23T23:20:20;5.65;;;3.17;;
59786;SDS011;45672;51.612;5.536;2023-03-23T23:22:48;6.80;;;2.85;;
59786;SDS011;45672;51.612;5.536;2023-03-23T23:25:13;4.75;;;2.38;;
59786;SDS011;45672;51.612;5.536;2023-03-23T23:27:39;5.50;;;3.00;;
59786;SDS011;45672;51.612;5.536;2023-03-23T23:30:05;6.07;;;3.03;;
59786;SDS011;45672;51.612;5.536;2023-03-23T23:32:32;5.13;;;3.00;;
59786;SDS011;45672;51.612;5.536;2023-03-23T23:34:59;5.13;;;2.70;;
59786;SDS011;45672;51.612;5.536;2023-03-23T23:37:24;4.28;;;3.10;;
59786;SDS011;45672;51.612;5.536;2023-03-23T23:39:49;4.97;;;2.85;;
59786;SDS011;45672;51.612;5.536;2023-03-23T23:42:15;5.18;;;3.00;;
59786;SDS011;45672;51.612;5.536;2023-03-23T23:44:41;6.28;;;2.97;;
59786;SDS011;45672;51.612;5.536;2023-03-23T23:47:08;4.50;;;3.08;;
59786;SDS011;45672;51.612;5.536;2023-03-23T23:49:35;7.75;;;3.10;;
59786;SDS011;45672;51.612;5.536;2023-03-23T23:52:00;4.55;;;2.92;;
59786;SDS011;45672;51.612;5.536;2023-03-23T23:54:26;4.75;;;3.08;;
59786;SDS011;45672;51.612;5.536;2023-03-23T23:56:53;6.43;;;2.70;;
59786;SDS011;45672;51.612;5.536;2023-03-23T23:59:22;5.40;;;2.85;;
